^^
Meteo Knjazevac Station Historical Data
Daily Summary for October 28, 2021 Units:  English    Metric   Both
Daily Weekly Monthly Yearly Custom
  High: Low: Average:
Temperature: 61.3 °F 27.3 °F 42.1 °F
Dew Point: 48.7 °F 25.6 °F 37.3 °F
Humidity: 98% 62% 84%
Wind Speed: 6mph 0mph 1.6mph
Wind Gust: 13mph - -
Wind- - WSW
Pressure: 30.40 in 30.30 in -
Precipitation: 0.00 in    
Historical Graphs
 
 
Tabular Data for October 28, 2021
Time Temperature Dew Point Pressure Wind Wind Speed Wind Gust Humidity Rainfall Rate (Hourly) solar Conditions
00:00 34.3 °F 31.7 °F 30.38 in Calm   2 mph 90% 0.00 in 0 W/m2
00:10 34 °F 31.1 °F 30.39 in Calm   1 mph 89% 0.00 in 0 W/m2
00:20 33.4 °F 30.5 °F 30.39 in West 2 mph 4 mph 89% 0.00 in 0 W/m2
00:30 33.3 °F 30.9 °F 30.39 in WNW 2 mph 4 mph 91% 0.00 in 0 W/m2
00:40 33.4 °F 31.6 °F 30.38 in WNW 1 mph 4 mph 93% 0.00 in 0 W/m2
00:50 33.1 °F 30.7 °F 30.38 in WNW 1 mph 2 mph 91% 0.00 in 0 W/m2
01:00 32.7 °F 30.4 °F 30.38 in Calm   2 mph 91% 0.00 in 0 W/m2
01:10 32.4 °F 29.8 °F 30.38 in Calm   2 mph 90% 0.00 in 0 W/m2
01:20 32.4 °F 30.6 °F 30.38 in NNW 1 mph 3 mph 93% 0.00 in 0 W/m2
01:30 32.4 °F 30.6 °F 30.38 in Calm   2 mph 93% 0.00 in 0 W/m2
01:40 32 °F 29.7 °F 30.38 in Calm   2 mph 91% 0.00 in 0 W/m2
01:50 31.8 °F 29.5 °F 30.38 in WNW 1 mph 2 mph 91% 0.00 in 0 W/m2
02:00 31.5 °F 29.1 °F 30.38 in NW 1 mph 2 mph 91% 0.00 in 0 W/m2
02:10 31.3 °F 29 °F 30.38 in West 2 mph 2 mph 91% 0.00 in 0 W/m2
02:20 31.1 °F 29.6 °F 30.38 in West 3 mph 6 mph 94% 0.00 in 0 W/m2
02:30 31.1 °F 29.6 °F 30.38 in WNW 3 mph 5 mph 94% 0.00 in 0 W/m2
02:40 30.9 °F 29.4 °F 30.38 in West 1 mph 4 mph 94% 0.00 in 0 W/m2
02:50 30.7 °F 29 °F 30.38 in West 1 mph 3 mph 93% 0.00 in 0 W/m2
03:00 30.7 °F 29 °F 30.38 in West 1 mph 3 mph 93% 0.00 in 0 W/m2
03:10 30.4 °F 28.6 °F 30.38 in West 2 mph 3 mph 93% 0.00 in 0 W/m2
03:20 30.2 °F 28.4 °F 30.38 in WNW 1 mph 3 mph 93% 0.00 in 0 W/m2
03:30 30 °F 28.2 °F 30.38 in NW 1 mph 2 mph 93% 0.00 in 0 W/m2
03:40 29.8 °F 28.1 °F 30.37 in NW 1 mph 2 mph 93% 0.00 in 0 W/m2
03:50 29.7 °F 27.9 °F 30.37 in WNW 2 mph 2 mph 93% 0.00 in 0 W/m2
04:00 29.7 °F 27.9 °F 30.37 in WNW 1 mph 3 mph 93% 0.00 in 0 W/m2
04:10 29.5 °F 27.7 °F 30.37 in WNW 2 mph 3 mph 93% 0.00 in 0 W/m2
04:20 29.3 °F 27.8 °F 30.37 in NW 1 mph 3 mph 94% 0.00 in 0 W/m2
04:30 29.1 °F 27.3 °F 30.37 in NW 1 mph 2 mph 93% 0.00 in 0 W/m2
04:40 29.1 °F 27.6 °F 30.37 in WNW 1 mph 3 mph 94% 0.00 in 0 W/m2
04:50 28.9 °F 27.4 °F 30.37 in Calm   3 mph 94% 0.00 in 0 W/m2
05:00 28.8 °F 27 °F 30.37 in NW 1 mph 2 mph 93% 0.00 in 0 W/m2
05:10 28.6 °F 26.8 °F 30.37 in NW 2 mph 3 mph 93% 0.00 in 0 W/m2
05:20 28.6 °F 26.8 °F 30.38 in NW 1 mph 2 mph 93% 0.00 in 0 W/m2
05:30 28.4 °F 26.6 °F 30.38 in Calm   2 mph 93% 0.00 in 0 W/m2
05:40 28.2 °F 26.5 °F 30.38 in NW 1 mph 2 mph 93% 0.00 in 0 W/m2
05:50 28 °F 26.5 °F 30.38 in WNW 1 mph 3 mph 94% 0.00 in 0 W/m2
06:00 28 °F 26.5 °F 30.38 in WNW 1 mph 2 mph 94% 0.00 in 0 W/m2
06:10 27.9 °F 26.4 °F 30.39 in WNW 2 mph 2 mph 94% 0.00 in 0 W/m2
06:20 27.9 °F 26.4 °F 30.39 in WNW 2 mph 3 mph 94% 0.00 in 0 W/m2
06:30 27.9 °F 26.4 °F 30.39 in WNW 2 mph 3 mph 94% 0.00 in 0 W/m2
06:40 27.9 °F 26.6 °F 30.39 in NW 1 mph 3 mph 95% 0.00 in 0 W/m2
06:50 27.9 °F 26.6 °F 30.39 in NW 1 mph 2 mph 95% 0.00 in 0 W/m2
07:00 27.7 °F 26.4 °F 30.39 in NW 1 mph 4 mph 95% 0.00 in 0 W/m2
07:10 27.7 °F 26.2 °F 30.39 in NNW 1 mph 3 mph 94% 0.00 in 4 W/m2
07:20 27.5 °F 26 °F 30.39 in NW 1 mph 2 mph 94% 0.00 in 17 W/m2
07:30 27.3 °F 25.6 °F 30.39 in WNW 2 mph 3 mph 93% 0.00 in 31 W/m2
07:40 27.3 °F 25.8 °F 30.39 in WNW 2 mph 3 mph 94% 0.00 in 44 W/m2
07:50 27.5 °F 26.3 °F 30.40 in NW 1 mph 3 mph 95% 0.00 in 62 W/m2
08:00 27.5 °F 26 °F 30.40 in Calm   2 mph 94% 0.00 in 82 W/m2
08:10 27.9 °F 26.6 °F 30.40 in WNW 2 mph 2 mph 95% 0.00 in 106 W/m2
08:20 28 °F 26.8 °F 30.40 in WNW 1 mph 2 mph 95% 0.00 in 107 W/m2
08:30 28.6 °F 27.6 °F 30.40 in NW 1 mph 2 mph 96% 0.00 in 156 W/m2
08:40 29.9 °F 28.9 °F 30.40 in Calm   2 mph 96% 0.00 in 184 W/m2
08:50 31.5 °F 31 °F 30.40 in NW 1 mph 2 mph 98% 0.00 in 204 W/m2
09:00 32.7 °F 32.2 °F 30.40 in West 1 mph 2 mph 98% 0.00 in 232 W/m2
09:10 34 °F 33 °F 30.40 in WSW 1 mph 2 mph 96% 0.00 in 257 W/m2
09:20 35.3 °F 34 °F 30.40 in SW 1 mph 2 mph 95% 0.00 in 253 W/m2
09:30 36.3 °F 34.8 °F 30.40 in West 1 mph 3 mph 94% 0.00 in 310 W/m2
09:40 37.2 °F 35.4 °F 30.40 in West 1 mph 2 mph 93% 0.00 in 334 W/m2
09:50 38.5 °F 36.7 °F 30.39 in SW 1 mph 2 mph 93% 0.00 in 356 W/m2
10:00 39.9 °F 37.5 °F 30.39 in SW 1 mph 3 mph 91% 0.00 in 381 W/m2
10:10 41.2 °F 38.2 °F 30.39 in NNE 1 mph 4 mph 89% 0.00 in 394 W/m2
10:20 42.3 °F 38.4 °F 30.39 in North 2 mph 5 mph 86% 0.00 in 219 W/m2
10:30 43.5 °F 39.6 °F 30.39 in NE 3 mph 6 mph 86% 0.00 in 129 W/m2
10:40 44.6 °F 40.1 °F 30.39 in NNE 1 mph 6 mph 84% 0.00 in 289 W/m2
10:50 45.5 °F 40.6 °F 30.39 in NE 1 mph 5 mph 83% 0.00 in 457 W/m2
11:00 46.4 °F 41.5 °F 30.39 in NNE 1 mph 5 mph 83% 0.00 in 472 W/m2
11:10 47.3 °F 41.4 °F 30.38 in ESE 1 mph 5 mph 80% 0.00 in 483 W/m2
11:20 48 °F 42.2 °F 30.38 in NNE 1 mph 5 mph 80% 0.00 in 491 W/m2
11:30 49.5 °F 43.2 °F 30.38 in North 3 mph 5 mph 79% 0.00 in 499 W/m2
11:40 50.2 °F 43.6 °F 30.37 in NE 1 mph 6 mph 78% 0.00 in 505 W/m2
11:50 51.3 °F 44.7 °F 30.37 in NNE 5 mph 8 mph 78% 0.00 in 509 W/m2
12:00 52.2 °F 45.2 °F 30.37 in NE 1 mph 7 mph 77% 0.00 in 512 W/m2
12:10 53.3 °F 45.5 °F 30.36 in NE 2 mph 7 mph 75% 0.00 in 513 W/m2
12:20 54.1 °F 46 °F 30.36 in NNE 5 mph 12 mph 74% 0.00 in 513 W/m2
12:30 55 °F 46.5 °F 30.35 in North 2 mph 8 mph 73% 0.00 in 511 W/m2
12:40 56 °F 47.1 °F 30.35 in NNE 2 mph 8 mph 72% 0.00 in 507 W/m2
12:50 57 °F 47.3 °F 30.35 in NNE 2 mph 8 mph 70% 0.00 in 502 W/m2
13:00 57.7 °F 47.6 °F 30.34 in NNE 3 mph 8 mph 69% 0.00 in 496 W/m2
13:10 58.5 °F 48 °F 30.34 in North 1 mph 8 mph 68% 0.00 in 488 W/m2
13:20 59.2 °F 48.6 °F 30.33 in NNE 3 mph 7 mph 68% 0.00 in 478 W/m2
13:30 59.7 °F 48.7 °F 30.33 in North 3 mph 7 mph 67% 0.00 in 467 W/m2
13:40 60.1 °F 48.3 °F 30.32 in NNE 3 mph 10 mph 65% 0.00 in 455 W/m2
13:50 60.6 °F 48.4 °F 30.32 in North 3 mph 10 mph 64% 0.00 in 441 W/m2
14:00 61 °F 48.3 °F 30.31 in North 6 mph 10 mph 63% 0.00 in 425 W/m2
14:10 61.2 °F 48.5 °F 30.31 in NNE 3 mph 8 mph 63% 0.00 in 409 W/m2
14:20 61.2 °F 48.5 °F 30.31 in North 2 mph 10 mph 63% 0.00 in 391 W/m2
14:30 61.2 °F 48.5 °F 30.31 in NNW 1 mph 6 mph 63% 0.00 in 373 W/m2
14:40 61.3 °F 48.2 °F 30.30 in North 6 mph 9 mph 62% 0.00 in 353 W/m2
14:50 61.3 °F 48.2 °F 30.30 in North 5 mph 10 mph 62% 0.00 in 332 W/m2
15:00 61.2 °F 48.5 °F 30.30 in North 3 mph 10 mph 63% 0.00 in 310 W/m2
15:10 61.2 °F 48.5 °F 30.30 in North 3 mph 11 mph 63% 0.00 in 287 W/m2
15:20 61 °F 48.3 °F 30.30 in North 5 mph 12 mph 63% 0.00 in 264 W/m2
15:30 60.4 °F 47.8 °F 30.30 in North 5 mph 12 mph 63% 0.00 in 240 W/m2
15:40 60.3 °F 48 °F 30.30 in North 6 mph 13 mph 64% 0.00 in 216 W/m2
15:50 59.9 °F 47.7 °F 30.30 in North 5 mph 10 mph 64% 0.00 in 191 W/m2
16:00 59.5 °F 47.3 °F 30.30 in North 5 mph 9 mph 64% 0.00 in 160 W/m2
16:10 59.2 °F 47.4 °F 30.30 in North 5 mph 12 mph 65% 0.00 in 131 W/m2
16:20 58.8 °F 47 °F 30.30 in North 5 mph 10 mph 65% 0.00 in 108 W/m2
16:30 58.3 °F 47.4 °F 30.30 in North 3 mph 10 mph 67% 0.00 in 90 W/m2
16:40 57.9 °F 47 °F 30.30 in NNW 3 mph 9 mph 67% 0.00 in 69 W/m2
16:50 57.4 °F 46.9 °F 30.30 in North 5 mph 8 mph 68% 0.00 in 49 W/m2
17:00 56.8 °F 46.4 °F 30.30 in NNW 2 mph 9 mph 68% 0.00 in 29 W/m2
17:10 56.3 °F 46.2 °F 30.30 in NNW 2 mph 7 mph 69% 0.00 in 12 W/m2
17:20 55.6 °F 45.9 °F 30.30 in NNW 2 mph 7 mph 70% 0.00 in 10 W/m2
17:30 54.9 °F 46 °F 30.30 in NNW 2 mph 8 mph 72% 0.00 in 0 W/m2
17:40 54.1 °F 45.7 °F 30.30 in NNW 5 mph 8 mph 73% 0.00 in 0 W/m2
17:50 53.6 °F 45.5 °F 30.30 in NNW 2 mph 7 mph 74% 0.00 in 0 W/m2
18:00 52.9 °F 45.2 °F 30.30 in NW 1 mph 6 mph 75% 0.00 in 0 W/m2
18:10 52.2 °F 44.5 °F 30.31 in WNW 2 mph 5 mph 75% 0.00 in 0 W/m2
18:20 51.8 °F 44.8 °F 30.31 in NNW 2 mph 5 mph 77% 0.00 in 0 W/m2
18:30 51.1 °F 44.5 °F 30.31 in NW 2 mph 7 mph 78% 0.00 in 0 W/m2
18:40 50.5 °F 43.9 °F 30.31 in West 3 mph 6 mph 78% 0.00 in 0 W/m2
18:50 49.8 °F 43.2 °F 30.31 in West 1 mph 4 mph 78% 0.00 in 0 W/m2
19:00 49.2 °F 43 °F 30.32 in Calm   3 mph 79% 0.00 in 0 W/m2
19:10 48.6 °F 42.3 °F 30.32 in WSW 1 mph 3 mph 79% 0.00 in 0 W/m2
19:20 47.8 °F 42 °F 30.32 in WSW 1 mph 3 mph 80% 0.00 in 0 W/m2
19:30 47.3 °F 41.7 °F 30.32 in WSW 2 mph 3 mph 81% 0.00 in 0 W/m2
19:40 46.8 °F 41.9 °F 30.32 in SW 1 mph 3 mph 83% 0.00 in 0 W/m2
19:50 46.2 °F 41.3 °F 30.32 in Calm   3 mph 83% 0.00 in 0 W/m2
20:00 45.7 °F 41.1 °F 30.32 in SW 1 mph 2 mph 84% 0.00 in 0 W/m2
20:10 45.1 °F 40.6 °F 30.32 in Calm   2 mph 84% 0.00 in 0 W/m2
20:20 44.6 °F 40.4 °F 30.32 in Calm   2 mph 85% 0.00 in 0 W/m2
20:30 44.1 °F 40.1 °F 30.32 in NW 1 mph 3 mph 86% 0.00 in 0 W/m2
20:40 43.7 °F 39.8 °F 30.32 in WNW 1 mph 2 mph 86% 0.00 in 0 W/m2
20:50 43.2 °F 39.8 °F 30.32 in Calm   2 mph 88% 0.00 in 0 W/m2
21:00 42.9 °F 39.3 °F 30.32 in Calm     87% 0.00 in 0 W/m2
21:10 42.6 °F 39.3 °F 30.33 in WSW 1 mph 2 mph 88% 0.00 in 0 W/m2
21:20 42.1 °F 39.1 °F 30.33 in Calm   2 mph 89% 0.00 in 0 W/m2
21:30 41.7 °F 38.7 °F 30.33 in Calm   2 mph 89% 0.00 in 0 W/m2
21:40 41.4 °F 38.6 °F 30.33 in SSW 1 mph 3 mph 90% 0.00 in 0 W/m2
21:50 41.1 °F 38.7 °F 30.33 in SSW 2 mph 4 mph 91% 0.00 in 0 W/m2
22:00 40.8 °F 38.4 °F 30.34 in Calm   3 mph 91% 0.00 in 0 W/m2
22:10 40.5 °F 38 °F 30.34 in Calm   2 mph 91% 0.00 in 0 W/m2
22:20 40.2 °F 38.1 °F 30.34 in Calm   3 mph 92% 0.00 in 0 W/m2
22:30 40.1 °F 38.2 °F 30.34 in SE 1 mph 2 mph 93% 0.00 in 0 W/m2
22:40 39.7 °F 37.3 °F 30.34 in Calm   2 mph 91% 0.00 in 0 W/m2
22:50 39.5 °F 37.6 °F 30.34 in Calm   2 mph 93% 0.00 in 0 W/m2
23:00 39.2 °F 36.8 °F 30.34 in Calm   1 mph 91% 0.00 in 0 W/m2
23:10 39 °F 37.2 °F 30.34 in Calm   2 mph 93% 0.00 in 0 W/m2
23:20 38.7 °F 37.1 °F 30.34 in Calm   3 mph 94% 0.00 in 0 W/m2
23:30 38.7 °F 37.1 °F 30.34 in Calm   2 mph 94% 0.00 in 0 W/m2
23:40 38.4 °F 36.8 °F 30.34 in Calm   2 mph 94% 0.00 in 0 W/m2
23:50 38.2 °F 36.7 °F 30.34 in Calm   1 mph 94% 0.00 in 0 W/m2
Knjazevac, Serbia
Compliments of Weather Underground - 2 mb